Terra Nova — WDG8691 — position and weather

sailwx.info

Track history (hours):
 
Tides and Currents Weather Stations Pressure Air Temp Water Temp Dewpoint Dewpoint Depression Visibility Wind Speed Wind Dir Waves Ship Positions

Terra Nova

Owner: Raphael, Martin G, Olympia, WA. More information available from US FCC via Universal Licensing System and Coast Guard Vessel Documentation Center.

Last reported at 2017-Dec-29 19:31 UTC. Time now 2018-Jul-23 13:50 UTC.
Position N 47°19' W 122°33'.
Warning: this ship's position is months out of date.

Length 13 m.

Type: Sailing vessel. MMSI: 367580150.

Date/timePositionNaut miles runAvg speedWind from/ knotsBaromVisibWave heightAir tempDewpointWater temp
2017-Dec-29 19:31N 47°19' W 122°33'1 7.4
2017-Dec-29 19:23N 47°20' W 122°33'7 7.0
2017-Dec-29 18:23N 47°27' W 122°31'3 6.7
2017-Dec-29 18:00N 47°29' W 122°30'3 6.9
2017-Dec-29 17:30N 47°33' W 122°28'3 6.8
2017-Dec-29 17:00N 47°36' W 122°29'3 6.4
2017-Dec-29 16:30N 47°39' W 122°29'3 6.1
2017-Dec-29 16:00N 47°42' W 122°29'3 5.9
2017-Dec-29 15:30N 47°45' W 122°28'3 5.4
2017-Dec-29 15:00N 47°48' W 122°30'0 0.3
2017-Dec-29 14:29N 47°48' W 122°30'0 0.0
2017-Dec-29 13:59N 47°48' W 122°30'0 0.0
2017-Dec-29 13:26N 47°48' W 122°30'0 0.0
2017-Dec-29 12:59N 47°48' W 122°30'0 0.0
2017-Dec-29 12:29N 47°48' W 122°30'0 0.0
2017-Dec-29 11:59N 47°48' W 122°30'0 0.0
2017-Dec-29 11:29N 47°48' W 122°30'0 0.0
2017-Dec-29 10:59N 47°48' W 122°30'0 0.0
2017-Dec-29 10:29N 47°48' W 122°30'0 0.0
2017-Dec-29 09:56N 47°48' W 122°30'0 0.0
2017-Dec-29 09:29N 47°48' W 122°30'0 0.0
2017-Dec-29 08:59N 47°48' W 122°30'0 0.0
2017-Dec-29 08:30N 47°48' W 122°30'0 0.0
2017-Dec-29 08:00N 47°48' W 122°30'0 0.0
2017-Dec-29 07:30N 47°48' W 122°30'0 0.0
2017-Dec-29 06:57N 47°48' W 122°30'0 0.0
2017-Dec-29 06:24N 47°48' W 122°30'0 0.0
2017-Dec-29 05:48N 47°48' W 122°30'0 0.0
2017-Dec-29 05:24N 47°48' W 122°30'0 0.0
2017-Dec-29 04:12N 47°48' W 122°30'0 0.0
2017-Dec-29 03:54N 47°48' W 122°30'0 0.0
2017-Dec-29 03:30N 47°48' W 122°30'0 0.0
2017-Dec-29 03:00N 47°48' W 122°30'0 0.0
2017-Dec-29 02:30N 47°48' W 122°30'0 0.0
2017-Dec-29 01:54N 47°48' W 122°30'0 0.0
2017-Dec-29 01:30N 47°48' W 122°30'0 0.0
2017-Dec-29 01:00N 47°48' W 122°30'0 0.0
2017-Dec-29 00:30N 47°48' W 122°30'0 0.1
2017-Dec-29 00:00N 47°48' W 122°30'2 4.1
2017-Dec-28 23:30N 47°49' W 122°28'2 4.0
2017-Dec-28 23:00N 47°51' W 122°26'2 4.4
2017-Dec-28 22:30N 47°53' W 122°24'2 4.5
2017-Dec-28 22:00N 47°54' W 122°22'2 4.5
2017-Dec-28 21:30N 47°57' W 122°21'3 4.8
2017-Dec-28 20:56N 47°59' W 122°21'6 5.3
2017-Dec-28 19:52N 48°04' W 122°25'23 1.1
2017-Dec-27 23:53N 48°27' W 122°30'2 4.8
2017-Dec-27 23:27N 48°29' W 122°32'2 5.5
2017-Dec-27 23:00N 48°31' W 122°34'2 3.2
2017-Dec-27 22:27N 48°30' W 122°36'0 0.0
2017-Dec-27 21:57N 48°30' W 122°36'0 0.0
2017-Dec-27 21:27N 48°30' W 122°36'0 0.0
2017-Dec-27 20:57N 48°30' W 122°36'0 0.0
2017-Dec-27 20:21N 48°30' W 122°36'0 0.0
2017-Dec-27 19:57N 48°30' W 122°36'0 0.0
2017-Dec-27 19:27N 48°30' W 122°36'0 0.0
2017-Dec-27 18:51N 48°30' W 122°36'0 0.0
2017-Dec-27 18:27N 48°30' W 122°36'0 0.0
2017-Dec-27 17:57N 48°30' W 122°36'0 0.0
2017-Dec-27 17:27N 48°30' W 122°36'0 0.0
2017-Dec-27 16:57N 48°30' W 122°36'0 0.0
2017-Dec-26 22:33N 48°30' W 122°36'0 0.0
2017-Dec-26 22:27N 48°30' W 122°36'0 0.0
2017-Dec-26 21:57N 48°30' W 122°36'0 0.0
2017-Dec-26 21:29N 48°30' W 122°36'0 0.0
2017-Dec-26 20:59N 48°30' W 122°36'0 0.0
2017-Dec-26 20:29N 48°30' W 122°36'0 0.0
2017-Dec-26 19:59N 48°30' W 122°36'0 0.0
2017-Dec-26 19:23N 48°30' W 122°36'  
Track history (hours):
 
Tides and Currents Weather Stations Pressure Air Temp Water Temp Dewpoint Dewpoint Depression Visibility Wind Speed Wind Dir Waves Ship Positions

Terra Nova

Owner: Raphael, Martin G, Olympia, WA. More information available from US FCC via Universal Licensing System and Coast Guard Vessel Documentation Center.

Last reported at 2017-Dec-29 19:31 UTC. Time now 2018-Jul-23 13:50 UTC.
Position N 47°19' W 122°33'.
Warning: this ship's position is months out of date.

Length 13 m.

Type: Sailing vessel. MMSI: 367580150.

Date/timePositionNaut miles runAvg speedWind from/ knotsBaromVisibWave heightAir tempDewpointWater temp
2017-Dec-29 19:31N 47°19' W 122°33'1 7.4
2017-Dec-29 19:23N 47°20' W 122°33'7 7.0
2017-Dec-29 18:23N 47°27' W 122°31'3 6.7
2017-Dec-29 18:00N 47°29' W 122°30'3 6.9
2017-Dec-29 17:30N 47°33' W 122°28'3 6.8
2017-Dec-29 17:00N 47°36' W 122°29'3 6.4
2017-Dec-29 16:30N 47°39' W 122°29'3 6.1
2017-Dec-29 16:00N 47°42' W 122°29'3 5.9
2017-Dec-29 15:30N 47°45' W 122°28'3 5.4
2017-Dec-29 15:00N 47°48' W 122°30'0 0.3
2017-Dec-29 14:29N 47°48' W 122°30'0 0.0
2017-Dec-29 13:59N 47°48' W 122°30'0 0.0
2017-Dec-29 13:26N 47°48' W 122°30'0 0.0
2017-Dec-29 12:59N 47°48' W 122°30'0 0.0
2017-Dec-29 12:29N 47°48' W 122°30'0 0.0
2017-Dec-29 11:59N 47°48' W 122°30'0 0.0
2017-Dec-29 11:29N 47°48' W 122°30'0 0.0
2017-Dec-29 10:59N 47°48' W 122°30'0 0.0
2017-Dec-29 10:29N 47°48' W 122°30'0 0.0
2017-Dec-29 09:56N 47°48' W 122°30'0 0.0
2017-Dec-29 09:29N 47°48' W 122°30'0 0.0
2017-Dec-29 08:59N 47°48' W 122°30'0 0.0
2017-Dec-29 08:30N 47°48' W 122°30'0 0.0
2017-Dec-29 08:00N 47°48' W 122°30'0 0.0
2017-Dec-29 07:30N 47°48' W 122°30'0 0.0
2017-Dec-29 06:57N 47°48' W 122°30'0 0.0
2017-Dec-29 06:24N 47°48' W 122°30'0 0.0
2017-Dec-29 05:48N 47°48' W 122°30'0 0.0
2017-Dec-29 05:24N 47°48' W 122°30'0 0.0
2017-Dec-29 04:12N 47°48' W 122°30'0 0.0
2017-Dec-29 03:54N 47°48' W 122°30'0 0.0
2017-Dec-29 03:30N 47°48' W 122°30'0 0.0
2017-Dec-29 03:00N 47°48' W 122°30'0 0.0
2017-Dec-29 02:30N 47°48' W 122°30'0 0.0
2017-Dec-29 01:54N 47°48' W 122°30'0 0.0
2017-Dec-29 01:30N 47°48' W 122°30'0 0.0
2017-Dec-29 01:00N 47°48' W 122°30'0 0.0
2017-Dec-29 00:30N 47°48' W 122°30'0 0.1
2017-Dec-29 00:00N 47°48' W 122°30'2 4.1
2017-Dec-28 23:30N 47°49' W 122°28'2 4.0
2017-Dec-28 23:00N 47°51' W 122°26'2 4.4
2017-Dec-28 22:30N 47°53' W 122°24'2 4.5
2017-Dec-28 22:00N 47°54' W 122°22'2 4.5
2017-Dec-28 21:30N 47°57' W 122°21'3 4.8
2017-Dec-28 20:56N 47°59' W 122°21'6 5.3
2017-Dec-28 19:52N 48°04' W 122°25'23 1.1
2017-Dec-27 23:53N 48°27' W 122°30'2 4.8
2017-Dec-27 23:27N 48°29' W 122°32'2 5.5
2017-Dec-27 23:00N 48°31' W 122°34'2 3.2
2017-Dec-27 22:27N 48°30' W 122°36'0 0.0
2017-Dec-27 21:57N 48°30' W 122°36'0 0.0
2017-Dec-27 21:27N 48°30' W 122°36'0 0.0
2017-Dec-27 20:57N 48°30' W 122°36'0 0.0
2017-Dec-27 20:21N 48°30' W 122°36'0 0.0
2017-Dec-27 19:57N 48°30' W 122°36'0 0.0
2017-Dec-27 19:27N 48°30' W 122°36'0 0.0
2017-Dec-27 18:51N 48°30' W 122°36'0 0.0
2017-Dec-27 18:27N 48°30' W 122°36'0 0.0
2017-Dec-27 17:57N 48°30' W 122°36'0 0.0
2017-Dec-27 17:27N 48°30' W 122°36'0 0.0
2017-Dec-27 16:57N 48°30' W 122°36'0 0.0
2017-Dec-26 22:33N 48°30' W 122°36'0 0.0
2017-Dec-26 22:27N 48°30' W 122°36'0 0.0
2017-Dec-26 21:57N 48°30' W 122°36'0 0.0
2017-Dec-26 21:29N 48°30' W 122°36'0 0.0
2017-Dec-26 20:59N 48°30' W 122°36'0 0.0
2017-Dec-26 20:29N 48°30' W 122°36'0 0.0
2017-Dec-26 19:59N 48°30' W 122°36'0 0.0
2017-Dec-26 19:23N 48°30' W 122°36'  

Dump ship's entire track history